ADDS METAR Data INFO
IDs: Format: Raw Decoded Include TAF

Data at: 0308 UTC 16 Aug 2018

PAPB 152053Z AUTO 30017KT 10SM FEW025 SCT045 09/07 A3003 RMK RAB00E19 SLP157 P0000 60001 T00890067 58000 TSNO VIA AUTODIAL
PAPB 152017Z AUTO 33016G24KT 7SM -RA SCT021 OVC032 08/06 A3003 RMK RAB00 P0000 T00780061 TSNO VIA AUTODIAL
PAPB 152010Z AUTO 34017G24KT 2 1/2SM -RA BR FEW008 BKN029 OVC035 07/07 A3003 RMK RAB00 P0000 T00720067 TSNO VIA AUTODIAL
PAPB 152002Z AUTO 33014KT 2 1/2SM -RA BR FEW017 BKN029 OVC037 08/07 A3003 RMK RAB00 P0000 T00780067 TSNO VIA AUTODIAL
PAPB 151953Z AUTO 32016KT 6SM BR FEW017 BKN030 OVC038 08/07 A3003 RMK PK WND 33027/1932 RAB37E52 SLP158 P0001 T00780067 TSNO VIA AUTODIAL
PAPB 151951Z AUTO 33018KT 6SM -RA BR FEW017 BKN030 OVC034 08/07 A3003 RMK PK WND 33027/1932 RAB37 P0001 TSNO VIA AUTODIAL
PAPB 151943Z AUTO 33018G25KT 3SM -RA BR FEW016 BKN028 OVC050 07/06 A3003 RMK PK WND 33027/1932 RAB37 P0001 T00720061 TSNO VIA AUTODIAL
PAPB 151153Z AUTO 32009KT 10SM FEW014 SCT022 BKN039 07/07 A3005 RMK SLP161 70007 T00720067 10083 20072 53003 TSNO $ VIA AUTODIAL
PAPB 151151Z AUTO 32010KT 9SM FEW014 SCT022 BKN037 07/07 A3005 RMK TSNO $ VIA AUTODIAL
PAPB 151125Z AUTO 32010KT 10SM BKN020 BKN047 08/07 A3005 RMK T00780067 TSNO $ VIA AUTODIAL
PAPB 151108Z AUTO 32011KT 10SM FEW012 FEW018 BKN047 07/06 A3005 RMK T00720061 TSNO $ VIA AUTODIAL
PAPB 150453Z AUTO 30012KT 10SM SCT011 10/08 A3001 RMK SLP151 T01000078 TSNO $ VIA AUTODIAL